sensor_id;sensor_type;location;lat;lon;timestamp;P1;durP1;ratioP1;P2;durP2;ratioP2
29686;SDS011;16599;47.078;15.536;2022-09-09T00:02:08;3.70;;;0.80;;
29686;SDS011;16599;47.078;15.536;2022-09-09T00:15:18;10.13;;;1.13;;
29686;SDS011;16599;47.078;15.536;2022-09-09T00:21:07;5.68;;;1.50;;
29686;SDS011;16599;47.078;15.536;2022-09-09T00:27:29;6.22;;;0.90;;
29686;SDS011;16599;47.078;15.536;2022-09-09T00:33:45;6.50;;;2.05;;
29686;SDS011;16599;47.078;15.536;2022-09-09T00:36:14;0.68;;;0.68;;
29686;SDS011;16599;47.078;15.536;2022-09-09T00:38:48;7.45;;;1.13;;
29686;SDS011;16599;47.078;15.536;2022-09-09T00:41:22;11.27;;;1.15;;
29686;SDS011;16599;47.078;15.536;2022-09-09T00:45:01;9.13;;;0.90;;
29686;SDS011;16599;47.078;15.536;2022-09-09T00:47:45;7.72;;;1.30;;
29686;SDS011;16599;47.078;15.536;2022-09-09T00:53:05;2.72;;;1.00;;
29686;SDS011;16599;47.078;15.536;2022-09-09T01:00:29;1.77;;;0.80;;
29686;SDS011;16599;47.078;15.536;2022-09-09T01:03:03;4.13;;;0.85;;
29686;SDS011;16599;47.078;15.536;2022-09-09T01:18:56;13.60;;;1.00;;
29686;SDS011;16599;47.078;15.536;2022-09-09T01:24:34;1.60;;;0.90;;
29686;SDS011;16599;47.078;15.536;2022-09-09T01:27:11;7.32;;;1.00;;
29686;SDS011;16599;47.078;15.536;2022-09-09T01:37:20;4.10;;;0.90;;
29686;SDS011;16599;47.078;15.536;2022-09-09T01:39:46;5.15;;;1.00;;
29686;SDS011;16599;47.078;15.536;2022-09-09T01:42:15;2.30;;;1.02;;
29686;SDS011;16599;47.078;15.536;2022-09-09T01:44:42;4.47;;;1.00;;
29686;SDS011;16599;47.078;15.536;2022-09-09T01:47:09;5.13;;;0.70;;
29686;SDS011;16599;47.078;15.536;2022-09-09T01:49:36;6.38;;;0.77;;
29686;SDS011;16599;47.078;15.536;2022-09-09T01:52:03;9.70;;;1.30;;
29686;SDS011;16599;47.078;15.536;2022-09-09T01:54:30;4.40;;;0.90;;
29686;SDS011;16599;47.078;15.536;2022-09-09T01:57:46;11.10;;;1.42;;
29686;SDS011;16599;47.078;15.536;2022-09-09T02:08:09;8.13;;;1.00;;
29686;SDS011;16599;47.078;15.536;2022-09-09T02:13:35;3.30;;;1.10;;
29686;SDS011;16599;47.078;15.536;2022-09-09T02:19:53;2.53;;;0.80;;
29686;SDS011;16599;47.078;15.536;2022-09-09T02:22:26;8.88;;;1.23;;
29686;SDS011;16599;47.078;15.536;2022-09-09T02:24:57;6.40;;;1.05;;
29686;SDS011;16599;47.078;15.536;2022-09-09T02:27:26;5.25;;;0.90;;
29686;SDS011;16599;47.078;15.536;2022-09-09T02:29:53;7.97;;;1.13;;
29686;SDS011;16599;47.078;15.536;2022-09-09T02:32:23;2.97;;;1.00;;
29686;SDS011;16599;47.078;15.536;2022-09-09T02:34:55;6.47;;;0.90;;
29686;SDS011;16599;47.078;15.536;2022-09-09T02:37:27;7.53;;;1.10;;
29686;SDS011;16599;47.078;15.536;2022-09-09T02:39:59;4.50;;;1.50;;
29686;SDS011;16599;47.078;15.536;2022-09-09T02:42:26;2.63;;;0.90;;
29686;SDS011;16599;47.078;15.536;2022-09-09T02:44:53;5.07;;;1.10;;
29686;SDS011;16599;47.078;15.536;2022-09-09T02:50:06;3.70;;;0.95;;
29686;SDS011;16599;47.078;15.536;2022-09-09T02:52:45;4.13;;;1.98;;
29686;SDS011;16599;47.078;15.536;2022-09-09T02:58:12;7.85;;;1.27;;
29686;SDS011;16599;47.078;15.536;2022-09-09T03:00:44;6.63;;;1.27;;
29686;SDS011;16599;47.078;15.536;2022-09-09T03:03:13;1.35;;;0.80;;
29686;SDS011;16599;47.078;15.536;2022-09-09T03:05:42;4.10;;;0.93;;
29686;SDS011;16599;47.078;15.536;2022-09-09T03:08:10;1.50;;;0.93;;
29686;SDS011;16599;47.078;15.536;2022-09-09T03:10:37;2.67;;;0.90;;
29686;SDS011;16599;47.078;15.536;2022-09-09T03:13:04;4.55;;;1.13;;
29686;SDS011;16599;47.078;15.536;2022-09-09T03:15:32;4.32;;;0.90;;
29686;SDS011;16599;47.078;15.536;2022-09-09T03:17:59;3.08;;;1.33;;
29686;SDS011;16599;47.078;15.536;2022-09-09T03:20:26;2.72;;;0.85;;
29686;SDS011;16599;47.078;15.536;2022-09-09T03:22:55;5.75;;;1.10;;
29686;SDS011;16599;47.078;15.536;2022-09-09T03:25:23;5.68;;;0.90;;
29686;SDS011;16599;47.078;15.536;2022-09-09T03:27:50;7.10;;;1.10;;
29686;SDS011;16599;47.078;15.536;2022-09-09T03:30:21;8.02;;;0.90;;
29686;SDS011;16599;47.078;15.536;2022-09-09T03:35:19;6.68;;;0.95;;
29686;SDS011;16599;47.078;15.536;2022-09-09T03:37:45;3.47;;;1.10;;
29686;SDS011;16599;47.078;15.536;2022-09-09T03:40:13;10.65;;;1.40;;
29686;SDS011;16599;47.078;15.536;2022-09-09T03:42:40;5.75;;;1.05;;
29686;SDS011;16599;47.078;15.536;2022-09-09T03:45:08;5.03;;;1.40;;
29686;SDS011;16599;47.078;15.536;2022-09-09T03:47:36;8.20;;;0.80;;
29686;SDS011;16599;47.078;15.536;2022-09-09T03:50:05;2.10;;;0.65;;
29686;SDS011;16599;47.078;15.536;2022-09-09T03:52:35;3.40;;;1.27;;
29686;SDS011;16599;47.078;15.536;2022-09-09T03:55:03;5.55;;;1.20;;
29686;SDS011;16599;47.078;15.536;2022-09-09T03:57:30;3.33;;;1.25;;
29686;SDS011;16599;47.078;15.536;2022-09-09T03:59:58;4.28;;;1.00;;
29686;SDS011;16599;47.078;15.536;2022-09-09T04:02:27;1.17;;;1.08;;
29686;SDS011;16599;47.078;15.536;2022-09-09T04:04:54;2.20;;;0.98;;
29686;SDS011;16599;47.078;15.536;2022-09-09T04:07:21;2.55;;;1.23;;
29686;SDS011;16599;47.078;15.536;2022-09-09T04:09:48;7.18;;;1.27;;
29686;SDS011;16599;47.078;15.536;2022-09-09T04:12:15;6.40;;;1.10;;
29686;SDS011;16599;47.078;15.536;2022-09-09T04:14:42;2.42;;;0.80;;
29686;SDS011;16599;47.078;15.536;2022-09-09T04:17:09;9.45;;;1.33;;
29686;SDS011;16599;47.078;15.536;2022-09-09T04:19:36;6.38;;;1.30;;
29686;SDS011;16599;47.078;15.536;2022-09-09T04:22:03;8.27;;;0.90;;
29686;SDS011;16599;47.078;15.536;2022-09-09T04:24:30;6.40;;;1.02;;
29686;SDS011;16599;47.078;15.536;2022-09-09T04:26:57;4.93;;;1.08;;
29686;SDS011;16599;47.078;15.536;2022-09-09T04:29:24;8.48;;;0.90;;
29686;SDS011;16599;47.078;15.536;2022-09-09T04:31:50;6.30;;;1.30;;
29686;SDS011;16599;47.078;15.536;2022-09-09T04:34:17;3.22;;;0.95;;
29686;SDS011;16599;47.078;15.536;2022-09-09T04:36:44;7.22;;;0.90;;
29686;SDS011;16599;47.078;15.536;2022-09-09T04:39:11;6.28;;;1.10;;
29686;SDS011;16599;47.078;15.536;2022-09-09T04:41:38;3.60;;;0.93;;
29686;SDS011;16599;47.078;15.536;2022-09-09T04:44:05;3.55;;;1.00;;
29686;SDS011;16599;47.078;15.536;2022-09-09T04:46:32;4.57;;;1.50;;
29686;SDS011;16599;47.078;15.536;2022-09-09T04:49:00;3.60;;;1.30;;
29686;SDS011;16599;47.078;15.536;2022-09-09T04:51:27;7.32;;;1.05;;
29686;SDS011;16599;47.078;15.536;2022-09-09T04:53:54;0.95;;;0.90;;
29686;SDS011;16599;47.078;15.536;2022-09-09T04:56:21;6.75;;;1.17;;
29686;SDS011;16599;47.078;15.536;2022-09-09T04:58:48;2.20;;;1.33;;
29686;SDS011;16599;47.078;15.536;2022-09-09T05:01:25;3.28;;;1.15;;
29686;SDS011;16599;47.078;15.536;2022-09-09T05:03:53;4.50;;;1.20;;
29686;SDS011;16599;47.078;15.536;2022-09-09T05:06:20;3.80;;;1.20;;
29686;SDS011;16599;47.078;15.536;2022-09-09T05:08:48;4.88;;;1.20;;
29686;SDS011;16599;47.078;15.536;2022-09-09T05:13:52;10.93;;;1.27;;
29686;SDS011;16599;47.078;15.536;2022-09-09T05:16:20;2.78;;;1.20;;
29686;SDS011;16599;47.078;15.536;2022-09-09T05:18:48;4.70;;;1.10;;
29686;SDS011;16599;47.078;15.536;2022-09-09T05:21:18;7.35;;;1.20;;
29686;SDS011;16599;47.078;15.536;2022-09-09T05:23:46;3.67;;;1.20;;
29686;SDS011;16599;47.078;15.536;2022-09-09T05:26:14;6.28;;;1.30;;
29686;SDS011;16599;47.078;15.536;2022-09-09T05:28:43;4.93;;;1.23;;
29686;SDS011;16599;47.078;15.536;2022-09-09T05:31:11;6.93;;;1.75;;
29686;SDS011;16599;47.078;15.536;2022-09-09T05:33:43;9.68;;;1.33;;
29686;SDS011;16599;47.078;15.536;2022-09-09T05:36:13;8.45;;;1.30;;
29686;SDS011;16599;47.078;15.536;2022-09-09T05:38:41;1.35;;;1.23;;
29686;SDS011;16599;47.078;15.536;2022-09-09T05:41:09;4.15;;;1.20;;
29686;SDS011;16599;47.078;15.536;2022-09-09T05:43:37;6.68;;;1.60;;
29686;SDS011;16599;47.078;15.536;2022-09-09T05:46:08;4.40;;;1.52;;
29686;SDS011;16599;47.078;15.536;2022-09-09T05:48:41;5.57;;;1.20;;
29686;SDS011;16599;47.078;15.536;2022-09-09T05:51:12;5.97;;;1.55;;
29686;SDS011;16599;47.078;15.536;2022-09-09T05:53:41;5.22;;;1.20;;
29686;SDS011;16599;47.078;15.536;2022-09-09T05:56:10;5.80;;;1.42;;
29686;SDS011;16599;47.078;15.536;2022-09-09T05:58:38;5.35;;;1.20;;
29686;SDS011;16599;47.078;15.536;2022-09-09T06:01:06;5.72;;;1.45;;
29686;SDS011;16599;47.078;15.536;2022-09-09T06:03:35;7.85;;;1.17;;
29686;SDS011;16599;47.078;15.536;2022-09-09T06:06:06;3.85;;;1.45;;
29686;SDS011;16599;47.078;15.536;2022-09-09T06:08:35;5.10;;;1.67;;
29686;SDS011;16599;47.078;15.536;2022-09-09T06:11:05;3.10;;;1.00;;
29686;SDS011;16599;47.078;15.536;2022-09-09T06:13:42;10.13;;;2.55;;
29686;SDS011;16599;47.078;15.536;2022-09-09T06:16:16;4.22;;;0.98;;
29686;SDS011;16599;47.078;15.536;2022-09-09T06:18:44;1.60;;;1.30;;
29686;SDS011;16599;47.078;15.536;2022-09-09T06:21:18;3.00;;;1.05;;
29686;SDS011;16599;47.078;15.536;2022-09-09T06:23:46;1.70;;;0.90;;
29686;SDS011;16599;47.078;15.536;2022-09-09T06:26:18;1.25;;;1.08;;
29686;SDS011;16599;47.078;15.536;2022-09-09T06:28:47;2.22;;;1.30;;
29686;SDS011;16599;47.078;15.536;2022-09-09T06:31:16;2.70;;;1.17;;
29686;SDS011;16599;47.078;15.536;2022-09-09T06:33:52;5.82;;;1.30;;
29686;SDS011;16599;47.078;15.536;2022-09-09T06:36:22;4.72;;;1.40;;
29686;SDS011;16599;47.078;15.536;2022-09-09T06:38:53;4.80;;;1.20;;
29686;SDS011;16599;47.078;15.536;2022-09-09T06:45:09;12.52;;;1.30;;
29686;SDS011;16599;47.078;15.536;2022-09-09T06:47:39;7.85;;;1.60;;
29686;SDS011;16599;47.078;15.536;2022-09-09T06:53:05;4.82;;;1.40;;
29686;SDS011;16599;47.078;15.536;2022-09-09T06:55:31;3.25;;;1.30;;
29686;SDS011;16599;47.078;15.536;2022-09-09T06:58:10;3.30;;;1.30;;
29686;SDS011;16599;47.078;15.536;2022-09-09T07:00:36;5.32;;;1.20;;
29686;SDS011;16599;47.078;15.536;2022-09-09T07:03:04;6.20;;;1.48;;
29686;SDS011;16599;47.078;15.536;2022-09-09T07:09:22;4.43;;;1.30;;
29686;SDS011;16599;47.078;15.536;2022-09-09T07:11:50;6.93;;;1.60;;
29686;SDS011;16599;47.078;15.536;2022-09-09T07:14:19;5.57;;;1.30;;
29686;SDS011;16599;47.078;15.536;2022-09-09T07:16:48;7.03;;;1.60;;
29686;SDS011;16599;47.078;15.536;2022-09-09T07:19:15;4.32;;;1.45;;
29686;SDS011;16599;47.078;15.536;2022-09-09T07:21:42;5.78;;;1.40;;
29686;SDS011;16599;47.078;15.536;2022-09-09T07:24:09;2.65;;;1.70;;
29686;SDS011;16599;47.078;15.536;2022-09-09T07:26:39;5.35;;;1.90;;
29686;SDS011;16599;47.078;15.536;2022-09-09T07:38:46;3.72;;;2.10;;
29686;SDS011;16599;47.078;15.536;2022-09-09T07:45:33;6.93;;;1.90;;
29686;SDS011;16599;47.078;15.536;2022-09-09T07:48:00;6.00;;;3.10;;
29686;SDS011;16599;47.078;15.536;2022-09-09T07:50:27;3.10;;;2.22;;
29686;SDS011;16599;47.078;15.536;2022-09-09T07:52:54;2.58;;;2.38;;
29686;SDS011;16599;47.078;15.536;2022-09-09T07:55:22;6.15;;;3.20;;
29686;SDS011;16599;47.078;15.536;2022-09-09T07:58:21;4.70;;;3.28;;
29686;SDS011;16599;47.078;15.536;2022-09-09T08:00:48;8.15;;;2.92;;
29686;SDS011;16599;47.078;15.536;2022-09-09T08:03:15;4.93;;;2.97;;
29686;SDS011;16599;47.078;15.536;2022-09-09T08:05:42;5.20;;;3.08;;
29686;SDS011;16599;47.078;15.536;2022-09-09T08:08:09;4.00;;;3.20;;
29686;SDS011;16599;47.078;15.536;2022-09-09T08:10:37;6.28;;;3.17;;
29686;SDS011;16599;47.078;15.536;2022-09-09T08:13:03;4.53;;;3.40;;
29686;SDS011;16599;47.078;15.536;2022-09-09T08:19:43;5.50;;;3.45;;
29686;SDS011;16599;47.078;15.536;2022-09-09T08:26:03;5.80;;;3.30;;
29686;SDS011;16599;47.078;15.536;2022-09-09T08:32:38;5.20;;;3.42;;
29686;SDS011;16599;47.078;15.536;2022-09-09T08:35:10;4.72;;;3.45;;
29686;SDS011;16599;47.078;15.536;2022-09-09T08:37:37;5.15;;;3.40;;
29686;SDS011;16599;47.078;15.536;2022-09-09T08:40:04;6.00;;;3.42;;
29686;SDS011;16599;47.078;15.536;2022-09-09T08:42:38;7.82;;;3.58;;
29686;SDS011;16599;47.078;15.536;2022-09-09T08:50:43;9.90;;;3.28;;
29686;SDS011;16599;47.078;15.536;2022-09-09T08:53:21;13.02;;;3.65;;
29686;SDS011;16599;47.078;15.536;2022-09-09T08:55:55;7.72;;;4.03;;
29686;SDS011;16599;47.078;15.536;2022-09-09T08:58:29;9.18;;;3.78;;
29686;SDS011;16599;47.078;15.536;2022-09-09T09:17:58;5.18;;;2.78;;
29686;SDS011;16599;47.078;15.536;2022-09-09T09:21:02;9.88;;;3.63;;
29686;SDS011;16599;47.078;15.536;2022-09-09T09:23:22;7.63;;;3.05;;
29686;SDS011;16599;47.078;15.536;2022-09-09T09:26:05;3.40;;;2.60;;
29686;SDS011;16599;47.078;15.536;2022-09-09T09:28:35;8.80;;;2.50;;
29686;SDS011;16599;47.078;15.536;2022-09-09T09:31:04;8.27;;;2.78;;
29686;SDS011;16599;47.078;15.536;2022-09-09T09:36:16;8.20;;;2.60;;
29686;SDS011;16599;47.078;15.536;2022-09-09T09:38:54;5.03;;;2.60;;
29686;SDS011;16599;47.078;15.536;2022-09-09T09:48:56;4.45;;;2.20;;
29686;SDS011;16599;47.078;15.536;2022-09-09T09:51:32;4.22;;;1.80;;
29686;SDS011;16599;47.078;15.536;2022-09-09T09:54:13;6.22;;;2.22;;
29686;SDS011;16599;47.078;15.536;2022-09-09T09:56:49;4.65;;;2.08;;
29686;SDS011;16599;47.078;15.536;2022-09-09T09:59:22;7.30;;;2.40;;
29686;SDS011;16599;47.078;15.536;2022-09-09T10:04:41;8.65;;;2.33;;
29686;SDS011;16599;47.078;15.536;2022-09-09T10:07:11;3.42;;;2.45;;
29686;SDS011;16599;47.078;15.536;2022-09-09T10:13:20;2.75;;;1.90;;
29686;SDS011;16599;47.078;15.536;2022-09-09T10:34:56;4.65;;;1.95;;
29686;SDS011;16599;47.078;15.536;2022-09-09T10:56:23;3.65;;;1.35;;
29686;SDS011;16599;47.078;15.536;2022-09-09T11:24:22;3.83;;;1.92;;
29686;SDS011;16599;47.078;15.536;2022-09-09T11:38:49;3.72;;;1.50;;
29686;SDS011;16599;47.078;15.536;2022-09-09T11:41:18;4.70;;;1.50;;
29686;SDS011;16599;47.078;15.536;2022-09-09T11:43:51;2.55;;;1.50;;
29686;SDS011;16599;47.078;15.536;2022-09-09T11:49:04;3.80;;;1.38;;
29686;SDS011;16599;47.078;15.536;2022-09-09T11:56:45;2.95;;;1.50;;
29686;SDS011;16599;47.078;15.536;2022-09-09T12:15:28;3.42;;;1.80;;
29686;SDS011;16599;47.078;15.536;2022-09-09T12:17:56;3.28;;;1.60;;
29686;SDS011;16599;47.078;15.536;2022-09-09T12:20:35;3.88;;;1.77;;
29686;SDS011;16599;47.078;15.536;2022-09-09T12:23:11;2.28;;;1.55;;
29686;SDS011;16599;47.078;15.536;2022-09-09T12:33:32;3.42;;;1.50;;
29686;SDS011;16599;47.078;15.536;2022-09-09T12:36:05;3.15;;;1.70;;
29686;SDS011;16599;47.078;15.536;2022-09-09T12:46:22;3.83;;;1.60;;
29686;SDS011;16599;47.078;15.536;2022-09-09T12:53:33;2.47;;;1.35;;
29686;SDS011;16599;47.078;15.536;2022-09-09T13:05:57;2.75;;;1.50;;
29686;SDS011;16599;47.078;15.536;2022-09-09T13:08:42;4.68;;;1.70;;
29686;SDS011;16599;47.078;15.536;2022-09-09T13:11:10;5.05;;;1.50;;
29686;SDS011;16599;47.078;15.536;2022-09-09T13:13:42;1.83;;;1.40;;
29686;SDS011;16599;47.078;15.536;2022-09-09T13:16:23;5.53;;;2.00;;
29686;SDS011;16599;47.078;15.536;2022-09-09T13:19:16;6.30;;;1.83;;
29686;SDS011;16599;47.078;15.536;2022-09-09T13:21:43;6.03;;;1.52;;
29686;SDS011;16599;47.078;15.536;2022-09-09T13:29:54;4.10;;;1.60;;
29686;SDS011;16599;47.078;15.536;2022-09-09T13:32:23;4.47;;;1.77;;
29686;SDS011;16599;47.078;15.536;2022-09-09T13:34:57;4.35;;;1.80;;
29686;SDS011;16599;47.078;15.536;2022-09-09T13:39:57;8.35;;;1.70;;
29686;SDS011;16599;47.078;15.536;2022-09-09T13:42:31;3.85;;;1.60;;
29686;SDS011;16599;47.078;15.536;2022-09-09T13:45:14;4.53;;;1.98;;
29686;SDS011;16599;47.078;15.536;2022-09-09T13:51:32;6.25;;;1.63;;
29686;SDS011;16599;47.078;15.536;2022-09-09T13:54:18;3.63;;;1.80;;
29686;SDS011;16599;47.078;15.536;2022-09-09T13:56:46;4.97;;;2.33;;
29686;SDS011;16599;47.078;15.536;2022-09-09T13:59:15;7.75;;;2.92;;
29686;SDS011;16599;47.078;15.536;2022-09-09T14:01:45;3.47;;;2.33;;
29686;SDS011;16599;47.078;15.536;2022-09-09T14:57:21;2.13;;;1.90;;
29686;SDS011;16599;47.078;15.536;2022-09-09T14:59:47;4.05;;;1.60;;
29686;SDS011;16599;47.078;15.536;2022-09-09T15:02:16;4.82;;;1.80;;
29686;SDS011;16599;47.078;15.536;2022-09-09T15:04:43;5.45;;;1.90;;
29686;SDS011;16599;47.078;15.536;2022-09-09T15:07:21;4.70;;;1.80;;
29686;SDS011;16599;47.078;15.536;2022-09-09T15:24:28;4.55;;;2.17;;
29686;SDS011;16599;47.078;15.536;2022-09-09T15:26:55;9.35;;;2.40;;
29686;SDS011;16599;47.078;15.536;2022-09-09T15:29:23;3.63;;;2.03;;
29686;SDS011;16599;47.078;15.536;2022-09-09T15:55:10;11.60;;;3.10;;
29686;SDS011;16599;47.078;15.536;2022-09-09T16:20:36;3.30;;;2.13;;
29686;SDS011;16599;47.078;15.536;2022-09-09T16:23:03;3.40;;;2.20;;
29686;SDS011;16599;47.078;15.536;2022-09-09T16:32:50;5.03;;;2.60;;
29686;SDS011;16599;47.078;15.536;2022-09-09T17:27:56;3.42;;;2.22;;
29686;SDS011;16599;47.078;15.536;2022-09-09T17:56:27;6.73;;;2.73;;
29686;SDS011;16599;47.078;15.536;2022-09-09T18:02:50;4.25;;;2.53;;
29686;SDS011;16599;47.078;15.536;2022-09-09T18:13:00;5.97;;;2.53;;
29686;SDS011;16599;47.078;15.536;2022-09-09T18:15:27;6.05;;;2.67;;
29686;SDS011;16599;47.078;15.536;2022-09-09T18:18:14;4.72;;;2.60;;
29686;SDS011;16599;47.078;15.536;2022-09-09T18:23:35;7.05;;;2.65;;
29686;SDS011;16599;47.078;15.536;2022-09-09T18:29:31;8.00;;;4.45;;
29686;SDS011;16599;47.078;15.536;2022-09-09T18:31:58;9.02;;;3.90;;
29686;SDS011;16599;47.078;15.536;2022-09-09T18:34:25;12.90;;;3.20;;
29686;SDS011;16599;47.078;15.536;2022-09-09T18:36:54;6.78;;;2.90;;
29686;SDS011;16599;47.078;15.536;2022-09-09T18:42:32;5.57;;;3.20;;
29686;SDS011;16599;47.078;15.536;2022-09-09T18:44:59;7.80;;;3.53;;
29686;SDS011;16599;47.078;15.536;2022-09-09T18:47:26;10.10;;;3.42;;
29686;SDS011;16599;47.078;15.536;2022-09-09T18:49:53;11.50;;;3.67;;
29686;SDS011;16599;47.078;15.536;2022-09-09T18:52:20;8.40;;;4.45;;
29686;SDS011;16599;47.078;15.536;2022-09-09T18:54:47;6.10;;;3.97;;
29686;SDS011;16599;47.078;15.536;2022-09-09T18:57:15;10.68;;;3.97;;
29686;SDS011;16599;47.078;15.536;2022-09-09T18:59:43;9.77;;;3.22;;
29686;SDS011;16599;47.078;15.536;2022-09-09T19:02:10;11.43;;;3.80;;
29686;SDS011;16599;47.078;15.536;2022-09-09T19:04:37;9.05;;;3.70;;
29686;SDS011;16599;47.078;15.536;2022-09-09T19:07:04;6.45;;;3.60;;
29686;SDS011;16599;47.078;15.536;2022-09-09T19:09:31;7.40;;;3.63;;
29686;SDS011;16599;47.078;15.536;2022-09-09T19:11:59;5.10;;;3.40;;
29686;SDS011;16599;47.078;15.536;2022-09-09T19:14:27;7.25;;;3.95;;
29686;SDS011;16599;47.078;15.536;2022-09-09T19:16:54;7.18;;;3.78;;
29686;SDS011;16599;47.078;15.536;2022-09-09T19:19:23;5.40;;;2.90;;
29686;SDS011;16599;47.078;15.536;2022-09-09T19:21:52;7.57;;;3.15;;
29686;SDS011;16599;47.078;15.536;2022-09-09T19:24:24;6.63;;;2.97;;
29686;SDS011;16599;47.078;15.536;2022-09-09T19:26:54;5.38;;;2.97;;
29686;SDS011;16599;47.078;15.536;2022-09-09T19:29:24;6.43;;;2.88;;
29686;SDS011;16599;47.078;15.536;2022-09-09T19:34:51;9.02;;;3.38;;
29686;SDS011;16599;47.078;15.536;2022-09-09T19:37:30;6.18;;;3.80;;
29686;SDS011;16599;47.078;15.536;2022-09-09T19:43:57;6.68;;;3.58;;
29686;SDS011;16599;47.078;15.536;2022-09-09T19:46:28;5.38;;;3.20;;
29686;SDS011;16599;47.078;15.536;2022-09-09T19:52:42;11.23;;;3.80;;
29686;SDS011;16599;47.078;15.536;2022-09-09T19:55:09;12.90;;;6.95;;
29686;SDS011;16599;47.078;15.536;2022-09-09T19:57:36;25.23;;;13.10;;
29686;SDS011;16599;47.078;15.536;2022-09-09T20:00:03;13.38;;;7.30;;
29686;SDS011;16599;47.078;15.536;2022-09-09T20:06:17;11.73;;;4.97;;
29686;SDS011;16599;47.078;15.536;2022-09-09T20:13:01;10.43;;;5.32;;
29686;SDS011;16599;47.078;15.536;2022-09-09T20:15:28;15.23;;;4.80;;
29686;SDS011;16599;47.078;15.536;2022-09-09T20:17:54;7.53;;;4.00;;
29686;SDS011;16599;47.078;15.536;2022-09-09T20:33:58;4.70;;;3.60;;
29686;SDS011;16599;47.078;15.536;2022-09-09T20:40:25;10.88;;;4.38;;
29686;SDS011;16599;47.078;15.536;2022-09-09T20:42:58;9.25;;;3.50;;
29686;SDS011;16599;47.078;15.536;2022-09-09T20:48:23;7.38;;;3.58;;
29686;SDS011;16599;47.078;15.536;2022-09-09T20:50:53;6.45;;;3.78;;
29686;SDS011;16599;47.078;15.536;2022-09-09T20:53:22;8.65;;;3.80;;
29686;SDS011;16599;47.078;15.536;2022-09-09T20:55:49;4.80;;;3.88;;
29686;SDS011;16599;47.078;15.536;2022-09-09T20:58:16;5.95;;;3.20;;
29686;SDS011;16599;47.078;15.536;2022-09-09T21:00:43;7.20;;;3.35;;
29686;SDS011;16599;47.078;15.536;2022-09-09T21:09:33;7.18;;;2.97;;
29686;SDS011;16599;47.078;15.536;2022-09-09T21:12:00;6.10;;;2.72;;
29686;SDS011;16599;47.078;15.536;2022-09-09T21:27:33;8.00;;;3.13;;
29686;SDS011;16599;47.078;15.536;2022-09-09T21:33:45;9.45;;;2.97;;
29686;SDS011;16599;47.078;15.536;2022-09-09T21:36:12;8.23;;;2.88;;
29686;SDS011;16599;47.078;15.536;2022-09-09T21:38:40;13.77;;;3.15;;
29686;SDS011;16599;47.078;15.536;2022-09-09T21:54:19;7.43;;;3.10;;
29686;SDS011;16599;47.078;15.536;2022-09-09T22:57:37;7.65;;;3.03;;
29686;SDS011;16599;47.078;15.536;2022-09-09T23:08:09;7.80;;;3.28;;
29686;SDS011;16599;47.078;15.536;2022-09-09T23:22:12;8.65;;;3.47;;
29686;SDS011;16599;47.078;15.536;2022-09-09T23:29:23;5.93;;;4.00;;
